sensor_id;sensor_type;location;lat;lon;timestamp;noise_LAeq;noise_LA_min;noise_LA_max;noise_LA01;noise_LA95
66274;Laerm;58450;52.150;4.466;2023-05-10T00:01:55;44.90;41.88;49.76;;
66274;Laerm;58450;52.150;4.466;2023-05-10T00:04:22;44.83;42.24;59.60;;
66274;Laerm;58450;52.150;4.466;2023-05-10T00:06:53;44.72;41.48;50.99;;
66274;Laerm;58450;52.150;4.466;2023-05-10T00:09:20;44.93;41.32;61.63;;
66274;Laerm;58450;52.150;4.466;2023-05-10T00:11:48;44.58;42.19;48.64;;
66274;Laerm;58450;52.150;4.466;2023-05-10T00:14:17;44.28;41.77;54.77;;
66274;Laerm;58450;52.150;4.466;2023-05-10T00:16:45;44.24;41.74;49.48;;
66274;Laerm;58450;52.150;4.466;2023-05-10T00:19:12;44.17;41.72;48.45;;
66274;Laerm;58450;52.150;4.466;2023-05-10T00:21:40;44.20;41.86;48.25;;
66274;Laerm;58450;52.150;4.466;2023-05-10T00:24:07;46.20;39.54;53.53;;
66274;Laerm;58450;52.150;4.466;2023-05-10T00:26:35;46.75;42.55;58.96;;
66274;Laerm;58450;52.150;4.466;2023-05-10T00:29:02;44.62;42.06;53.22;;
66274;Laerm;58450;52.150;4.466;2023-05-10T00:31:31;44.36;42.03;48.95;;
66274;Laerm;58450;52.150;4.466;2023-05-10T00:33:59;44.01;41.53;48.76;;
66274;Laerm;58450;52.150;4.466;2023-05-10T00:36:26;45.75;41.50;56.60;;
66274;Laerm;58450;52.150;4.466;2023-05-10T00:38:53;43.82;41.67;48.40;;
66274;Laerm;58450;52.150;4.466;2023-05-10T00:41:21;44.55;41.69;50.03;;
66274;Laerm;58450;52.150;4.466;2023-05-10T00:43:49;45.08;41.18;53.97;;
66274;Laerm;58450;52.150;4.466;2023-05-10T00:46:17;43.89;41.36;47.61;;
66274;Laerm;58450;52.150;4.466;2023-05-10T00:48:46;43.95;41.20;48.09;;
66274;Laerm;58450;52.150;4.466;2023-05-10T00:51:13;43.97;41.51;48.93;;
66274;Laerm;58450;52.150;4.466;2023-05-10T00:53:41;44.60;42.07;53.74;;
66274;Laerm;58450;52.150;4.466;2023-05-10T00:56:10;44.08;41.74;50.22;;
66274;Laerm;58450;52.150;4.466;2023-05-10T00:58:39;44.24;42.02;57.08;;
66274;Laerm;58450;52.150;4.466;2023-05-10T01:01:07;44.42;41.64;50.56;;
66274;Laerm;58450;52.150;4.466;2023-05-10T01:03:36;44.30;41.44;52.72;;
66274;Laerm;58450;52.150;4.466;2023-05-10T01:06:06;44.49;41.35;49.68;;
66274;Laerm;58450;52.150;4.466;2023-05-10T01:08:34;46.68;41.23;54.96;;
66274;Laerm;58450;52.150;4.466;2023-05-10T01:11:01;44.39;41.08;51.30;;
66274;Laerm;58450;52.150;4.466;2023-05-10T01:13:33;44.66;41.66;53.70;;
66274;Laerm;58450;52.150;4.466;2023-05-10T01:16:02;44.97;41.34;53.99;;
66274;Laerm;58450;52.150;4.466;2023-05-10T01:18:33;44.90;41.31;53.72;;
66274;Laerm;58450;52.150;4.466;2023-05-10T01:21:17;45.06;41.78;53.12;;
66274;Laerm;58450;52.150;4.466;2023-05-10T01:24:13;44.67;41.86;49.54;;
66274;Laerm;58450;52.150;4.466;2023-05-10T01:31:06;44.55;41.93;50.90;;
66274;Laerm;58450;52.150;4.466;2023-05-10T01:33:43;44.48;41.81;49.59;;
66274;Laerm;58450;52.150;4.466;2023-05-10T01:36:25;45.95;41.29;57.09;;
66274;Laerm;58450;52.150;4.466;2023-05-10T01:39:01;43.92;41.51;50.30;;
66274;Laerm;58450;52.150;4.466;2023-05-10T01:41:41;44.03;41.44;48.34;;
66274;Laerm;58450;52.150;4.466;2023-05-10T01:44:22;43.72;41.33;47.30;;
66274;Laerm;58450;52.150;4.466;2023-05-10T01:46:58;46.54;41.12;65.62;;
66274;Laerm;58450;52.150;4.466;2023-05-10T01:49:36;43.81;41.45;48.84;;
66274;Laerm;58450;52.150;4.466;2023-05-10T01:52:12;43.79;40.81;50.65;;
66274;Laerm;58450;52.150;4.466;2023-05-10T01:54:48;43.91;41.00;51.29;;
66274;Laerm;58450;52.150;4.466;2023-05-10T01:57:19;44.19;41.61;53.03;;
66274;Laerm;58450;52.150;4.466;2023-05-10T01:59:50;44.26;38.93;53.12;;
66274;Laerm;58450;52.150;4.466;2023-05-10T02:02:21;43.67;39.98;51.61;;
66274;Laerm;58450;52.150;4.466;2023-05-10T02:04:52;43.54;38.43;51.21;;
66274;Laerm;58450;52.150;4.466;2023-05-10T02:07:23;43.63;41.17;47.55;;
66274;Laerm;58450;52.150;4.466;2023-05-10T02:09:51;43.95;40.08;48.87;;
66274;Laerm;58450;52.150;4.466;2023-05-10T02:12:20;44.20;39.43;53.29;;
66274;Laerm;58450;52.150;4.466;2023-05-10T02:14:52;43.80;40.25;50.07;;
66274;Laerm;58450;52.150;4.466;2023-05-10T02:17:21;51.68;39.38;65.36;;
66274;Laerm;58450;52.150;4.466;2023-05-10T02:19:53;43.89;37.92;50.92;;
66274;Laerm;58450;52.150;4.466;2023-05-10T02:22:24;44.00;40.18;51.81;;
66274;Laerm;58450;52.150;4.466;2023-05-10T02:24:55;44.70;38.80;52.37;;
66274;Laerm;58450;52.150;4.466;2023-05-10T02:27:27;47.18;40.18;61.51;;
66274;Laerm;58450;52.150;4.466;2023-05-10T02:29:56;44.71;41.88;49.83;;
66274;Laerm;58450;52.150;4.466;2023-05-10T02:32:27;46.01;41.87;66.72;;
66274;Laerm;58450;52.150;4.466;2023-05-10T02:34:59;45.27;41.82;53.69;;
66274;Laerm;58450;52.150;4.466;2023-05-10T02:37:29;46.60;41.14;58.82;;
66274;Laerm;58450;52.150;4.466;2023-05-10T02:39:58;44.44;40.96;48.76;;
66274;Laerm;58450;52.150;4.466;2023-05-10T02:42:29;44.57;41.62;50.04;;
66274;Laerm;58450;52.150;4.466;2023-05-10T02:45:02;44.51;41.54;47.78;;
66274;Laerm;58450;52.150;4.466;2023-05-10T02:47:33;44.58;41.95;49.12;;
66274;Laerm;58450;52.150;4.466;2023-05-10T02:50:02;44.40;41.95;49.37;;
66274;Laerm;58450;52.150;4.466;2023-05-10T02:52:39;44.69;41.67;50.14;;
66274;Laerm;58450;52.150;4.466;2023-05-10T02:55:11;44.56;42.20;48.59;;
66274;Laerm;58450;52.150;4.466;2023-05-10T02:57:43;44.59;41.55;53.41;;
66274;Laerm;58450;52.150;4.466;2023-05-10T03:00:14;44.33;40.94;51.99;;
66274;Laerm;58450;52.150;4.466;2023-05-10T03:02:41;44.90;41.58;53.12;;
66274;Laerm;58450;52.150;4.466;2023-05-10T03:05:10;44.94;41.12;55.36;;
66274;Laerm;58450;52.150;4.466;2023-05-10T03:07:38;45.31;40.53;55.82;;
66274;Laerm;58450;52.150;4.466;2023-05-10T03:10:07;45.06;41.65;58.70;;
66274;Laerm;58450;52.150;4.466;2023-05-10T03:12:52;44.80;41.46;50.96;;
66274;Laerm;58450;52.150;4.466;2023-05-10T03:15:32;46.12;41.85;58.46;;
66274;Laerm;58450;52.150;4.466;2023-05-10T03:18:09;46.47;42.02;57.65;;
66274;Laerm;58450;52.150;4.466;2023-05-10T03:20:43;46.75;40.53;57.32;;
66274;Laerm;58450;52.150;4.466;2023-05-10T03:23:25;47.72;39.54;62.83;;
66274;Laerm;58450;52.150;4.466;2023-05-10T03:25:54;49.57;41.59;71.42;;
66274;Laerm;58450;52.150;4.466;2023-05-10T03:28:25;48.65;42.69;63.30;;
66274;Laerm;58450;52.150;4.466;2023-05-10T03:30:55;46.79;41.51;61.04;;
66274;Laerm;58450;52.150;4.466;2023-05-10T03:33:23;46.84;41.95;55.26;;
66274;Laerm;58450;52.150;4.466;2023-05-10T03:35:52;46.18;40.97;54.24;;
66274;Laerm;58450;52.150;4.466;2023-05-10T03:38:19;48.94;41.17;59.68;;
66274;Laerm;58450;52.150;4.466;2023-05-10T03:40:47;47.34;42.09;59.19;;
66274;Laerm;58450;52.150;4.466;2023-05-10T03:43:14;53.71;43.40;72.26;;
66274;Laerm;58450;52.150;4.466;2023-05-10T03:45:42;51.28;42.21;66.05;;
66274;Laerm;58450;52.150;4.466;2023-05-10T03:48:09;49.68;43.45;64.92;;
66274;Laerm;58450;52.150;4.466;2023-05-10T03:50:37;47.81;42.78;61.04;;
66274;Laerm;58450;52.150;4.466;2023-05-10T03:53:06;49.57;44.29;69.07;;
66274;Laerm;58450;52.150;4.466;2023-05-10T03:55:33;48.94;42.69;59.32;;
66274;Laerm;58450;52.150;4.466;2023-05-10T03:58:02;49.20;44.25;61.08;;
66274;Laerm;58450;52.150;4.466;2023-05-10T04:00:30;49.06;44.24;61.53;;
66274;Laerm;58450;52.150;4.466;2023-05-10T04:02:57;48.16;43.95;56.32;;
66274;Laerm;58450;52.150;4.466;2023-05-10T04:05:25;46.89;42.96;64.99;;
66274;Laerm;58450;52.150;4.466;2023-05-10T04:07:52;49.32;42.96;61.89;;
66274;Laerm;58450;52.150;4.466;2023-05-10T04:10:21;49.13;44.14;64.76;;
66274;Laerm;58450;52.150;4.466;2023-05-10T04:12:49;51.66;43.55;67.92;;
66274;Laerm;58450;52.150;4.466;2023-05-10T04:15:17;51.63;43.61;72.10;;
66274;Laerm;58450;52.150;4.466;2023-05-10T04:17:44;52.49;43.95;69.40;;
66274;Laerm;58450;52.150;4.466;2023-05-10T04:20:13;50.76;43.96;67.71;;
66274;Laerm;58450;52.150;4.466;2023-05-10T04:22:40;53.07;43.09;78.31;;
66274;Laerm;58450;52.150;4.466;2023-05-10T04:25:09;51.24;44.07;65.81;;
66274;Laerm;58450;52.150;4.466;2023-05-10T04:27:37;49.04;44.10;68.20;;
66274;Laerm;58450;52.150;4.466;2023-05-10T04:30:07;49.47;44.46;67.04;;
66274;Laerm;58450;52.150;4.466;2023-05-10T04:32:34;53.68;44.04;70.57;;
66274;Laerm;58450;52.150;4.466;2023-05-10T04:35:02;52.44;44.24;75.96;;
66274;Laerm;58450;52.150;4.466;2023-05-10T04:37:30;50.95;44.09;75.30;;
66274;Laerm;58450;52.150;4.466;2023-05-10T04:39:58;52.65;44.56;71.12;;
66274;Laerm;58450;52.150;4.466;2023-05-10T04:42:26;48.00;44.05;65.38;;
66274;Laerm;58450;52.150;4.466;2023-05-10T04:44:55;53.05;43.02;70.15;;
66274;Laerm;58450;52.150;4.466;2023-05-10T04:47:23;52.62;44.19;70.92;;
66274;Laerm;58450;52.150;4.466;2023-05-10T04:49:50;49.66;44.61;60.47;;
66274;Laerm;58450;52.150;4.466;2023-05-10T04:52:18;50.84;45.78;63.14;;
66274;Laerm;58450;52.150;4.466;2023-05-10T04:54:45;52.38;45.76;76.04;;
66274;Laerm;58450;52.150;4.466;2023-05-10T04:57:13;53.70;45.16;70.00;;
66274;Laerm;58450;52.150;4.466;2023-05-10T04:59:40;52.39;43.92;67.52;;
66274;Laerm;58450;52.150;4.466;2023-05-10T05:02:10;50.94;43.72;68.87;;
66274;Laerm;58450;52.150;4.466;2023-05-10T05:04:37;52.63;44.24;75.19;;
66274;Laerm;58450;52.150;4.466;2023-05-10T05:07:05;51.45;44.88;68.76;;
66274;Laerm;58450;52.150;4.466;2023-05-10T05:09:32;70.50;45.80;86.79;;
66274;Laerm;58450;52.150;4.466;2023-05-10T05:11:59;62.58;45.25;85.50;;
66274;Laerm;58450;52.150;4.466;2023-05-10T05:14:27;53.99;45.61;64.90;;
66274;Laerm;58450;52.150;4.466;2023-05-10T05:16:55;50.76;44.68;64.78;;
66274;Laerm;58450;52.150;4.466;2023-05-10T05:19:24;51.37;45.72;67.43;;
66274;Laerm;58450;52.150;4.466;2023-05-10T05:21:52;73.01;44.85;89.27;;
66274;Laerm;58450;52.150;4.466;2023-05-10T05:24:19;62.18;45.84;83.64;;
66274;Laerm;58450;52.150;4.466;2023-05-10T05:26:47;54.40;46.51;81.63;;
66274;Laerm;58450;52.150;4.466;2023-05-10T05:29:14;70.11;46.08;85.78;;
66274;Laerm;58450;52.150;4.466;2023-05-10T05:31:42;65.98;45.84;84.91;;
66274;Laerm;58450;52.150;4.466;2023-05-10T05:34:09;62.95;46.59;81.79;;
66274;Laerm;58450;52.150;4.466;2023-05-10T05:36:38;57.57;46.79;80.38;;
66274;Laerm;58450;52.150;4.466;2023-05-10T05:39:06;58.38;46.07;83.65;;
66274;Laerm;58450;52.150;4.466;2023-05-10T05:41:33;63.71;47.29;82.37;;
66274;Laerm;58450;52.150;4.466;2023-05-10T05:44:01;55.07;47.46;78.97;;
66274;Laerm;58450;52.150;4.466;2023-05-10T05:46:28;62.51;47.32;81.82;;
66274;Laerm;58450;52.150;4.466;2023-05-10T05:48:56;54.67;46.28;73.11;;
66274;Laerm;58450;52.150;4.466;2023-05-10T05:51:23;62.48;45.97;80.52;;
66274;Laerm;58450;52.150;4.466;2023-05-10T05:53:52;55.17;46.06;67.56;;
66274;Laerm;58450;52.150;4.466;2023-05-10T05:56:20;62.34;45.86;84.04;;
66274;Laerm;58450;52.150;4.466;2023-05-10T05:58:50;60.67;45.94;78.03;;
66274;Laerm;58450;52.150;4.466;2023-05-10T06:01:18;54.19;46.16;75.23;;
66274;Laerm;58450;52.150;4.466;2023-05-10T06:03:45;68.58;46.01;85.43;;
66274;Laerm;58450;52.150;4.466;2023-05-10T06:06:13;60.20;47.25;79.68;;
66274;Laerm;58450;52.150;4.466;2023-05-10T06:08:40;55.72;45.95;73.06;;
66274;Laerm;58450;52.150;4.466;2023-05-10T06:11:09;70.42;45.27;88.46;;
66274;Laerm;58450;52.150;4.466;2023-05-10T06:13:36;59.91;48.71;76.25;;
66274;Laerm;58450;52.150;4.466;2023-05-10T06:16:05;52.80;44.55;72.01;;
66274;Laerm;58450;52.150;4.466;2023-05-10T06:18:32;70.80;44.10;87.95;;
66274;Laerm;58450;52.150;4.466;2023-05-10T06:21:00;53.66;44.74;74.21;;
66274;Laerm;58450;52.150;4.466;2023-05-10T06:23:28;55.38;45.80;79.90;;
66274;Laerm;58450;52.150;4.466;2023-05-10T06:25:56;69.81;46.05;85.51;;
66274;Laerm;58450;52.150;4.466;2023-05-10T06:28:24;55.99;47.92;80.13;;
66274;Laerm;58450;52.150;4.466;2023-05-10T06:30:52;67.85;46.09;85.80;;
66274;Laerm;58450;52.150;4.466;2023-05-10T06:33:19;57.33;47.39;80.72;;
66274;Laerm;58450;52.150;4.466;2023-05-10T06:35:47;66.83;46.33;83.05;;
66274;Laerm;58450;52.150;4.466;2023-05-10T06:38:14;67.82;45.64;84.05;;
66274;Laerm;58450;52.150;4.466;2023-05-10T06:40:42;53.15;46.41;71.33;;
66274;Laerm;58450;52.150;4.466;2023-05-10T06:43:10;57.48;45.17;79.24;;
66274;Laerm;58450;52.150;4.466;2023-05-10T06:45:39;68.49;45.52;83.32;;
66274;Laerm;58450;52.150;4.466;2023-05-10T06:48:07;54.70;45.82;76.35;;
66274;Laerm;58450;52.150;4.466;2023-05-10T06:50:35;69.60;46.34;82.81;;
66274;Laerm;58450;52.150;4.466;2023-05-10T06:53:02;57.45;46.44;76.11;;
66274;Laerm;58450;52.150;4.466;2023-05-10T06:55:30;52.46;43.52;69.32;;
66274;Laerm;58450;52.150;4.466;2023-05-10T06:57:57;52.66;44.35;63.56;;
66274;Laerm;58450;52.150;4.466;2023-05-10T07:00:25;53.07;44.86;74.84;;
66274;Laerm;58450;52.150;4.466;2023-05-10T07:02:54;53.03;45.54;72.85;;
66274;Laerm;58450;52.150;4.466;2023-05-10T07:05:22;55.16;46.29;80.70;;
66274;Laerm;58450;52.150;4.466;2023-05-10T07:07:49;54.12;44.47;80.43;;
66274;Laerm;58450;52.150;4.466;2023-05-10T07:10:18;57.44;43.25;81.59;;
66274;Laerm;58450;52.150;4.466;2023-05-10T07:12:45;55.86;44.48;79.05;;
66274;Laerm;58450;52.150;4.466;2023-05-10T07:15:13;56.46;43.36;80.35;;
66274;Laerm;58450;52.150;4.466;2023-05-10T07:17:42;53.59;44.31;78.73;;
66274;Laerm;58450;52.150;4.466;2023-05-10T07:20:12;47.87;43.26;57.43;;
66274;Laerm;58450;52.150;4.466;2023-05-10T07:22:39;49.78;42.68;64.81;;
66274;Laerm;58450;52.150;4.466;2023-05-10T07:25:07;50.26;43.19;62.11;;
66274;Laerm;58450;52.150;4.466;2023-05-10T07:27:35;49.10;42.34;60.01;;
66274;Laerm;58450;52.150;4.466;2023-05-10T07:30:03;49.96;42.47;64.93;;
66274;Laerm;58450;52.150;4.466;2023-05-10T07:32:31;53.72;43.19;78.37;;
66274;Laerm;58450;52.150;4.466;2023-05-10T07:34:58;51.76;44.37;70.29;;
66274;Laerm;58450;52.150;4.466;2023-05-10T07:37:27;68.92;45.63;84.21;;
66274;Laerm;58450;52.150;4.466;2023-05-10T07:39:55;56.30;45.29;72.60;;
66274;Laerm;58450;52.150;4.466;2023-05-10T07:42:22;55.07;44.20;73.17;;
66274;Laerm;58450;52.150;4.466;2023-05-10T07:44:50;54.03;44.45;70.48;;
66274;Laerm;58450;52.150;4.466;2023-05-10T07:47:18;67.92;44.40;83.92;;
66274;Laerm;58450;52.150;4.466;2023-05-10T07:49:45;67.72;46.38;85.70;;
66274;Laerm;58450;52.150;4.466;2023-05-10T07:52:13;54.11;45.22;77.97;;
66274;Laerm;58450;52.150;4.466;2023-05-10T07:54:42;67.41;42.70;87.31;;
66274;Laerm;58450;52.150;4.466;2023-05-10T07:57:10;56.17;42.49;76.40;;
66274;Laerm;58450;52.150;4.466;2023-05-10T07:59:40;55.33;43.83;86.00;;
66274;Laerm;58450;52.150;4.466;2023-05-10T08:02:08;66.65;44.56;81.74;;
66274;Laerm;58450;52.150;4.466;2023-05-10T08:04:35;63.87;44.17;80.18;;
66274;Laerm;58450;52.150;4.466;2023-05-10T08:07:03;51.24;43.66;75.68;;
66274;Laerm;58450;52.150;4.466;2023-05-10T08:09:30;52.56;45.54;75.74;;
66274;Laerm;58450;52.150;4.466;2023-05-10T08:11:59;50.88;42.78;67.85;;
66274;Laerm;58450;52.150;4.466;2023-05-10T08:14:29;53.10;45.94;65.89;;
66274;Laerm;58450;52.150;4.466;2023-05-10T08:16:56;52.01;44.69;67.81;;
66274;Laerm;58450;52.150;4.466;2023-05-10T08:19:24;54.00;44.79;66.89;;
66274;Laerm;58450;52.150;4.466;2023-05-10T08:21:52;54.55;45.27;75.48;;
66274;Laerm;58450;52.150;4.466;2023-05-10T08:24:21;55.50;44.57;73.85;;
66274;Laerm;58450;52.150;4.466;2023-05-10T08:26:49;51.38;43.88;65.91;;
66274;Laerm;58450;52.150;4.466;2023-05-10T08:29:18;58.72;44.35;75.66;;
66274;Laerm;58450;52.150;4.466;2023-05-10T08:31:46;52.56;43.32;72.98;;
66274;Laerm;58450;52.150;4.466;2023-05-10T08:34:13;51.62;44.84;73.05;;
66274;Laerm;58450;52.150;4.466;2023-05-10T08:36:41;52.26;44.98;73.43;;
66274;Laerm;58450;52.150;4.466;2023-05-10T08:39:08;51.54;45.25;63.42;;
66274;Laerm;58450;52.150;4.466;2023-05-10T08:41:39;50.70;44.58;67.23;;
66274;Laerm;58450;52.150;4.466;2023-05-10T08:44:09;53.89;44.39;69.60;;
66274;Laerm;58450;52.150;4.466;2023-05-10T08:46:41;51.55;43.98;70.75;;
66274;Laerm;58450;52.150;4.466;2023-05-10T08:49:13;53.09;44.04;64.04;;
66274;Laerm;58450;52.150;4.466;2023-05-10T08:51:50;54.95;45.31;70.75;;
66274;Laerm;58450;52.150;4.466;2023-05-10T08:54:19;53.85;45.73;69.31;;
66274;Laerm;58450;52.150;4.466;2023-05-10T08:56:48;58.98;46.04;75.72;;
66274;Laerm;58450;52.150;4.466;2023-05-10T08:59:16;55.47;47.32;65.42;;
66274;Laerm;58450;52.150;4.466;2023-05-10T09:01:46;52.13;46.16;70.07;;
66274;Laerm;58450;52.150;4.466;2023-05-10T09:04:15;51.57;43.80;66.58;;
66274;Laerm;58450;52.150;4.466;2023-05-10T09:06:43;55.06;45.95;75.16;;
66274;Laerm;58450;52.150;4.466;2023-05-10T09:09:10;51.85;43.95;64.32;;
66274;Laerm;58450;52.150;4.466;2023-05-10T09:11:39;53.55;44.46;67.12;;
66274;Laerm;58450;52.150;4.466;2023-05-10T09:14:07;52.42;45.49;66.88;;
66274;Laerm;58450;52.150;4.466;2023-05-10T09:16:35;53.00;43.41;74.52;;
66274;Laerm;58450;52.150;4.466;2023-05-10T09:19:04;53.06;45.46;71.39;;
66274;Laerm;58450;52.150;4.466;2023-05-10T09:21:35;52.10;45.76;68.48;;
66274;Laerm;58450;52.150;4.466;2023-05-10T09:24:05;51.49;43.99;64.29;;
66274;Laerm;58450;52.150;4.466;2023-05-10T09:26:33;52.48;44.98;68.42;;
66274;Laerm;58450;52.150;4.466;2023-05-10T09:29:02;50.69;43.07;68.79;;
66274;Laerm;58450;52.150;4.466;2023-05-10T09:31:45;51.06;42.87;64.29;;
66274;Laerm;58450;52.150;4.466;2023-05-10T09:34:18;49.66;42.38;66.09;;
66274;Laerm;58450;52.150;4.466;2023-05-10T09:36:55;50.35;42.24;69.62;;
66274;Laerm;58450;52.150;4.466;2023-05-10T09:39:31;51.93;43.15;61.94;;
66274;Laerm;58450;52.150;4.466;2023-05-10T09:41:59;49.66;43.64;64.60;;
66274;Laerm;58450;52.150;4.466;2023-05-10T09:44:30;51.35;42.92;68.47;;
66274;Laerm;58450;52.150;4.466;2023-05-10T09:46:58;51.98;44.37;66.03;;
66274;Laerm;58450;52.150;4.466;2023-05-10T09:49:27;54.19;43.16;70.15;;
66274;Laerm;58450;52.150;4.466;2023-05-10T09:52:03;58.58;44.67;74.85;;
66274;Laerm;58450;52.150;4.466;2023-05-10T09:54:31;56.71;42.71;74.87;;
66274;Laerm;58450;52.150;4.466;2023-05-10T09:56:59;52.38;44.89;63.04;;
66274;Laerm;58450;52.150;4.466;2023-05-10T09:59:28;52.00;46.01;66.98;;
66274;Laerm;58450;52.150;4.466;2023-05-10T10:01:56;51.55;45.32;65.83;;
66274;Laerm;58450;52.150;4.466;2023-05-10T10:04:24;52.72;46.64;63.16;;
66274;Laerm;58450;52.150;4.466;2023-05-10T10:07:04;52.53;45.27;64.93;;
66274;Laerm;58450;52.150;4.466;2023-05-10T10:09:33;51.97;44.21;68.15;;
66274;Laerm;58450;52.150;4.466;2023-05-10T10:12:01;51.00;44.27;64.17;;
66274;Laerm;58450;52.150;4.466;2023-05-10T10:14:29;52.90;44.31;67.18;;
66274;Laerm;58450;52.150;4.466;2023-05-10T10:17:00;49.82;43.18;69.39;;
66274;Laerm;58450;52.150;4.466;2023-05-10T10:19:28;52.98;45.16;66.32;;
66274;Laerm;58450;52.150;4.466;2023-05-10T10:21:56;51.86;45.03;68.01;;
66274;Laerm;58450;52.150;4.466;2023-05-10T10:24:25;51.99;44.95;69.69;;
66274;Laerm;58450;52.150;4.466;2023-05-10T10:26:57;53.03;45.13;75.41;;
66274;Laerm;58450;52.150;4.466;2023-05-10T10:29:39;53.53;45.30;76.57;;
66274;Laerm;58450;52.150;4.466;2023-05-10T10:32:20;49.50;42.92;60.19;;
66274;Laerm;58450;52.150;4.466;2023-05-10T10:34:52;52.62;43.78;62.83;;
66274;Laerm;58450;52.150;4.466;2023-05-10T10:37:21;49.39;43.60;61.31;;
66274;Laerm;58450;52.150;4.466;2023-05-10T10:39:50;50.63;44.22;60.61;;
66274;Laerm;58450;52.150;4.466;2023-05-10T10:42:44;50.47;42.48;66.75;;
66274;Laerm;58450;52.150;4.466;2023-05-10T10:45:13;52.14;44.04;69.06;;
66274;Laerm;58450;52.150;4.466;2023-05-10T10:47:41;51.69;43.94;64.02;;
66274;Laerm;58450;52.150;4.466;2023-05-10T10:50:09;48.90;43.23;58.89;;
66274;Laerm;58450;52.150;4.466;2023-05-10T10:52:40;50.84;43.53;64.95;;
66274;Laerm;58450;52.150;4.466;2023-05-10T10:55:11;50.45;43.26;66.34;;
66274;Laerm;58450;52.150;4.466;2023-05-10T10:57:51;48.48;42.51;65.32;;
66274;Laerm;58450;52.150;4.466;2023-05-10T11:00:27;48.28;42.97;62.71;;
66274;Laerm;58450;52.150;4.466;2023-05-10T11:02:58;50.82;43.95;67.41;;
66274;Laerm;58450;52.150;4.466;2023-05-10T11:05:42;52.31;46.22;60.06;;
66274;Laerm;58450;52.150;4.466;2023-05-10T11:08:16;53.23;46.30;64.91;;
66274;Laerm;58450;52.150;4.466;2023-05-10T11:11:03;52.57;45.68;67.66;;
66274;Laerm;58450;52.150;4.466;2023-05-10T11:13:38;55.64;46.59;79.18;;
66274;Laerm;58450;52.150;4.466;2023-05-10T11:16:17;54.83;46.41;67.23;;
66274;Laerm;58450;52.150;4.466;2023-05-10T11:18:59;53.57;44.49;71.56;;
66274;Laerm;58450;52.150;4.466;2023-05-10T11:21:29;56.88;45.89;75.37;;
66274;Laerm;58450;52.150;4.466;2023-05-10T11:23:59;51.91;45.34;64.30;;
66274;Laerm;58450;52.150;4.466;2023-05-10T11:26:32;51.67;44.34;73.00;;
66274;Laerm;58450;52.150;4.466;2023-05-10T11:29:00;51.17;44.52;63.36;;
66274;Laerm;58450;52.150;4.466;2023-05-10T11:31:28;53.51;43.77;76.32;;
66274;Laerm;58450;52.150;4.466;2023-05-10T11:33:58;51.98;44.86;62.38;;
66274;Laerm;58450;52.150;4.466;2023-05-10T11:36:32;50.63;45.38;64.87;;
66274;Laerm;58450;52.150;4.466;2023-05-10T11:39:00;53.56;46.18;69.06;;
66274;Laerm;58450;52.150;4.466;2023-05-10T11:41:30;50.53;43.92;63.23;;
66274;Laerm;58450;52.150;4.466;2023-05-10T11:43:58;54.11;45.59;65.83;;
66274;Laerm;58450;52.150;4.466;2023-05-10T11:46:27;52.25;45.53;61.24;;
66274;Laerm;58450;52.150;4.466;2023-05-10T11:48:59;52.33;44.88;62.80;;
66274;Laerm;58450;52.150;4.466;2023-05-10T11:51:34;49.38;44.24;68.32;;
66274;Laerm;58450;52.150;4.466;2023-05-10T11:54:07;52.61;44.45;65.69;;
66274;Laerm;58450;52.150;4.466;2023-05-10T11:56:37;51.66;44.63;65.30;;
66274;Laerm;58450;52.150;4.466;2023-05-10T11:59:05;52.67;46.65;67.44;;
66274;Laerm;58450;52.150;4.466;2023-05-10T12:01:32;50.57;44.18;60.64;;
66274;Laerm;58450;52.150;4.466;2023-05-10T12:04:01;50.11;44.91;68.23;;
66274;Laerm;58450;52.150;4.466;2023-05-10T12:06:31;53.65;43.94;80.06;;
66274;Laerm;58450;52.150;4.466;2023-05-10T12:09:01;53.98;45.68;72.95;;
66274;Laerm;58450;52.150;4.466;2023-05-10T12:11:38;53.26;44.38;75.60;;
66274;Laerm;58450;52.150;4.466;2023-05-10T12:14:08;54.65;44.28;75.98;;
66274;Laerm;58450;52.150;4.466;2023-05-10T12:16:36;51.48;45.28;67.51;;
66274;Laerm;58450;52.150;4.466;2023-05-10T12:19:03;55.25;44.81;74.30;;
66274;Laerm;58450;52.150;4.466;2023-05-10T12:21:31;50.60;44.98;64.16;;
66274;Laerm;58450;52.150;4.466;2023-05-10T12:24:02;52.58;46.05;64.13;;
66274;Laerm;58450;52.150;4.466;2023-05-10T12:26:32;51.39;46.05;61.04;;
66274;Laerm;58450;52.150;4.466;2023-05-10T12:29:16;49.65;44.92;65.39;;
66274;Laerm;58450;52.150;4.466;2023-05-10T12:31:55;50.58;45.48;71.41;;
66274;Laerm;58450;52.150;4.466;2023-05-10T12:34:25;49.60;45.20;58.55;;
66274;Laerm;58450;52.150;4.466;2023-05-10T12:36:54;49.18;44.85;60.83;;
66274;Laerm;58450;52.150;4.466;2023-05-10T12:39:22;55.43;45.63;80.21;;
66274;Laerm;58450;52.150;4.466;2023-05-10T12:41:49;50.88;44.55;60.92;;
66274;Laerm;58450;52.150;4.466;2023-05-10T12:44:19;52.81;44.20;65.90;;
66274;Laerm;58450;52.150;4.466;2023-05-10T12:46:47;49.59;44.45;60.62;;
66274;Laerm;58450;52.150;4.466;2023-05-10T12:49:15;53.64;45.73;68.47;;
66274;Laerm;58450;52.150;4.466;2023-05-10T12:51:42;50.40;46.05;67.02;;
66274;Laerm;58450;52.150;4.466;2023-05-10T12:54:10;52.94;46.63;64.26;;
66274;Laerm;58450;52.150;4.466;2023-05-10T12:56:38;51.32;45.66;61.40;;
66274;Laerm;58450;52.150;4.466;2023-05-10T12:59:07;54.83;44.99;75.10;;
66274;Laerm;58450;52.150;4.466;2023-05-10T13:01:35;52.57;44.45;73.57;;
66274;Laerm;58450;52.150;4.466;2023-05-10T13:04:03;53.30;46.82;63.26;;
66274;Laerm;58450;52.150;4.466;2023-05-10T13:06:31;51.52;45.67;60.76;;
66274;Laerm;58450;52.150;4.466;2023-05-10T13:08:58;51.74;44.20;63.20;;
66274;Laerm;58450;52.150;4.466;2023-05-10T13:11:26;49.30;44.26;59.17;;
66274;Laerm;58450;52.150;4.466;2023-05-10T13:13:53;53.10;43.04;66.34;;
66274;Laerm;58450;52.150;4.466;2023-05-10T13:16:21;50.79;43.48;70.31;;
66274;Laerm;58450;52.150;4.466;2023-05-10T13:18:50;52.75;44.05;71.25;;
66274;Laerm;58450;52.150;4.466;2023-05-10T13:21:18;47.60;42.35;57.88;;
66274;Laerm;58450;52.150;4.466;2023-05-10T13:23:45;50.57;42.63;62.78;;
66274;Laerm;58450;52.150;4.466;2023-05-10T13:26:13;49.86;43.14;62.02;;
66274;Laerm;58450;52.150;4.466;2023-05-10T13:28:41;46.86;40.58;58.64;;
66274;Laerm;58450;52.150;4.466;2023-05-10T13:31:08;49.12;42.54;61.05;;
66274;Laerm;58450;52.150;4.466;2023-05-10T13:33:36;49.46;42.68;59.68;;
66274;Laerm;58450;52.150;4.466;2023-05-10T13:36:06;48.86;43.10;60.45;;
66274;Laerm;58450;52.150;4.466;2023-05-10T13:38:33;51.14;42.43;62.24;;
66274;Laerm;58450;52.150;4.466;2023-05-10T13:41:01;50.58;41.46;65.46;;
66274;Laerm;58450;52.150;4.466;2023-05-10T13:43:29;51.80;42.31;64.04;;
66274;Laerm;58450;52.150;4.466;2023-05-10T13:45:57;47.73;42.86;55.68;;
66274;Laerm;58450;52.150;4.466;2023-05-10T13:48:24;52.74;43.33;62.74;;
66274;Laerm;58450;52.150;4.466;2023-05-10T13:50:52;49.12;42.95;58.85;;
66274;Laerm;58450;52.150;4.466;2023-05-10T13:53:20;53.66;43.30;67.98;;
66274;Laerm;58450;52.150;4.466;2023-05-10T13:55:48;49.35;42.08;58.72;;
66274;Laerm;58450;52.150;4.466;2023-05-10T13:58:16;49.85;40.78;63.82;;
66274;Laerm;58450;52.150;4.466;2023-05-10T14:00:44;48.86;42.32;59.40;;
66274;Laerm;58450;52.150;4.466;2023-05-10T14:03:11;51.29;43.05;61.46;;